Time;durP1;ratioP1;P1;durP2;ratioP2;P2;SDS_P1;SDS_P2;PMS_P1;PMS_P2;Temp;Humidity;BMP_temperature;BMP_pressure;BME280_temperature;BME280_humidity;BME280_pressure;Samples;Min_cycle;Max_cycle;Signal;HPM_P1;HPM_P2
2022/06/08 00:00:15;;;;;;;0.73;0.47;;;16.20;79.30;;;;;;5024475;28;20606;-78
2022/06/08 00:02:44;;;;;;;0.20;0.13;;;16.30;79.00;;;;;;5042781;28;20119;-80
2022/06/08 00:05:09;;;;;;;0.00;0.00;;;16.30;78.70;;;;;;5048944;28;20040;-78
2022/06/08 00:07:35;;;;;;;0.13;0.13;;;16.40;78.10;;;;;;5042414;28;20029;-78
2022/06/08 00:10:02;;;;;;;0.00;0.00;;;16.40;78.30;;;;;;5045067;28;20525;-78
2022/06/08 00:12:28;;;;;;;0.10;0.10;;;16.30;78.40;;;;;;5040202;28;20075;-78
2022/06/08 00:14:54;;;;;;;0.10;0.10;;;16.30;78.60;;;;;;5023933;28;20029;-78
2022/06/08 00:17:21;;;;;;;0.00;0.00;;;16.20;79.10;;;;;;5045105;28;20029;-78
2022/06/08 00:19:47;;;;;;;0.10;0.10;;;16.20;79.10;;;;;;5041172;28;20079;-78
2022/06/08 00:22:13;;;;;;;0.10;0.10;;;16.10;79.40;;;;;;5022564;28;20116;-78
2022/06/08 00:24:39;;;;;;;0.00;0.00;;;16.10;79.50;;;;;;5040900;28;20029;-79
2022/06/08 00:27:05;;;;;;;0.15;0.15;;;16.00;80.20;;;;;;5022578;28;20036;-77
2022/06/08 00:29:32;;;;;;;0.10;0.10;;;16.00;79.90;;;;;;5040750;28;20037;-77
2022/06/08 00:31:58;;;;;;;2.90;0.40;;;16.10;79.90;;;;;;5040957;28;20022;-77
2022/06/08 00:34:24;;;;;;;0.32;0.20;;;16.10;79.60;;;;;;5039442;28;20039;-78
2022/06/08 00:36:49;;;;;;;0.30;0.30;;;16.10;79.70;;;;;;5040673;28;20505;-78
2022/06/08 00:39:15;;;;;;;0.00;0.00;;;16.10;79.60;;;;;;5022375;28;20037;-77
2022/06/08 00:41:52;;;;;;;0.20;0.20;;;16.30;79.30;;;;;;5041635;28;20044;-77
2022/06/08 00:44:48;;;;;;;0.13;0.13;;;16.30;79.10;;;;;;5040986;28;20496;-78
2022/06/08 00:47:21;;;;;;;0.10;0.10;;;16.10;79.80;;;;;;5045009;28;20048;-77
2022/06/08 00:49:56;;;;;;;0.10;0.10;;;16.10;79.80;;;;;;5041213;28;20033;-77
2022/06/08 00:52:22;;;;;;;0.00;0.00;;;16.10;79.90;;;;;;5036234;28;20037;-77
2022/06/08 00:54:52;;;;;;;0.10;0.10;;;16.00;80.30;;;;;;5042017;28;20091;-78
2022/06/08 00:57:29;;;;;;;0.10;0.10;;;15.90;80.80;;;;;;5025387;28;20064;-81
2022/06/08 01:00:06;;;;;;;0.35;0.35;;;15.80;81.70;;;;;;5037464;28;20033;-80
2022/06/08 01:02:32;;;;;;;;;;;15.80;81.70;;;;;;5042022;28;20033;-80
2022/06/08 01:05:21;;;;;;;0.00;0.00;;;15.70;81.60;;;;;;5038884;28;20394;-79
2022/06/08 01:07:49;;;;;;;0.10;0.10;;;15.70;81.70;;;;;;5039546;28;20499;-79
2022/06/08 01:10:24;;;;;;;0.10;0.10;;;15.70;82.20;;;;;;5040000;28;20033;-80
2022/06/08 01:12:50;;;;;;;0.10;0.10;;;15.60;82.90;;;;;;5040988;28;20570;-79
2022/06/08 01:15:21;;;;;;;0.10;0.10;;;15.60;82.90;;;;;;5038779;28;20521;-79
2022/06/08 01:17:47;;;;;;;0.10;0.10;;;15.70;82.30;;;;;;5040354;28;20072;-79
2022/06/08 01:20:13;;;;;;;0.20;0.20;;;15.70;82.20;;;;;;5040003;28;20069;-79
2022/06/08 01:22:39;;;;;;;0.10;0.10;;;15.70;82.30;;;;;;5042692;28;20040;-78
2022/06/08 01:25:08;;;;;;;5.63;1.33;;;15.70;82.50;;;;;;5040454;28;20025;-78
2022/06/08 01:27:43;;;;;;;0.08;0.08;;;15.70;82.40;;;;;;5034461;28;20085;-78
2022/06/08 01:30:41;;;;;;;0.00;0.00;;;15.70;82.30;;;;;;5039581;28;20036;-79
2022/06/08 01:33:31;;;;;;;0.10;0.10;;;15.70;82.50;;;;;;4957049;28;20053;-79
2022/06/08 01:36:11;;;;;;;0.10;0.10;;;15.70;82.70;;;;;;4957064;28;20121;-78
2022/06/08 01:38:47;;;;;;;0.15;0.15;;;15.50;83.20;;;;;;4956603;28;20178;-78
2022/06/08 01:41:18;;;;;;;1.55;0.68;;;15.50;83.60;;;;;;4954817;28;20510;-78
2022/06/08 01:43:50;;;;;;;0.17;0.17;;;15.50;83.50;;;;;;4958818;28;20046;-78
2022/06/08 01:46:26;;;;;;;0.50;0.50;;;15.50;83.70;;;;;;4951808;28;20098;-77
2022/06/08 01:49:16;;;;;;;0.15;0.15;;;15.40;84.00;;;;;;4952477;28;20076;-76
2022/06/08 01:52:19;;;;;;;0.38;0.28;;;15.40;84.00;;;;;;4954573;28;20085;-76
2022/06/08 01:55:03;;;;;;;0.03;0.03;;;15.40;83.90;;;;;;4951744;28;20154;-75
2022/06/08 01:57:41;;;;;;;0.08;0.08;;;15.30;84.00;;;;;;4947790;28;20332;-76
2022/06/08 02:00:09;;;;;;;0.10;0.10;;;15.30;83.90;;;;;;4955058;28;20104;-76
2022/06/08 02:02:46;;;;;;;0.08;0.08;;;15.30;84.10;;;;;;4951401;28;20054;-76
2022/06/08 02:05:31;;;;;;;0.20;0.20;;;15.20;84.60;;;;;;4956528;28;20066;-76
2022/06/08 02:08:24;;;;;;;0.10;0.10;;;15.10;85.00;;;;;;4966587;28;20047;-76
2022/06/08 02:11:15;;;;;;;0.10;0.10;;;15.10;85.00;;;;;;4995680;28;20100;-77
2022/06/08 02:13:55;;;;;;;0.10;0.10;;;15.00;85.10;;;;;;4996493;28;20037;-77
2022/06/08 02:16:29;;;;;;;0.10;0.10;;;15.00;85.00;;;;;;4982137;28;20479;-77
2022/06/08 02:19:09;;;;;;;0.10;0.10;;;15.10;84.80;;;;;;4995989;28;20037;-77
2022/06/08 02:21:56;;;;;;;0.52;0.20;;;15.20;84.60;;;;;;4989768;28;20193;-77
2022/06/08 02:24:26;;;;;;;0.10;0.10;;;15.20;84.50;;;;;;4996237;28;20088;-77
2022/06/08 02:27:04;;;;;;;0.15;0.15;;;15.30;84.30;;;;;;4991617;28;20045;-77
2022/06/08 02:29:40;;;;;;;0.00;0.00;;;15.40;83.80;;;;;;4995460;28;20034;-77
2022/06/08 02:34:59;;;;;;;0.10;0.10;;;15.50;83.70;;;;;;4999381;28;20045;-77
2022/06/08 02:37:30;;;;;;;0.10;0.10;;;15.50;83.10;;;;;;4993831;28;20036;-77
2022/06/08 02:40:11;;;;;;;0.90;0.20;;;15.60;82.70;;;;;;4996313;28;20034;-77
2022/06/08 02:42:44;;;;;;;0.10;0.10;;;15.60;82.70;;;;;;4995444;28;20759;-77
2022/06/08 02:45:29;;;;;;;0.15;0.15;;;15.30;83.80;;;;;;4999094;28;20027;-77
2022/06/08 02:48:00;;;;;;;0.10;0.10;;;15.10;84.60;;;;;;5006143;28;20045;-77
2022/06/08 02:50:26;;;;;;;0.10;0.10;;;15.00;85.50;;;;;;5017584;28;20029;-76
2022/06/08 02:53:16;;;;;;;0.10;0.05;;;15.00;85.40;;;;;;5020255;28;20065;-76
2022/06/08 02:56:08;;;;;;;0.00;0.00;;;15.00;85.70;;;;;;5015840;28;20109;-76
2022/06/08 02:58:55;;;;;;;0.00;0.00;;;15.00;85.60;;;;;;5019219;28;20032;-77
2022/06/08 03:01:27;;;;;;;0.10;0.10;;;15.00;85.80;;;;;;5014182;28;20823;-78
2022/06/08 03:03:58;;;;;;;0.30;0.30;;;14.90;86.10;;;;;;5020347;28;20037;-77
2022/06/08 03:06:29;;;;;;;0.10;0.10;;;15.10;85.20;;;;;;5018573;28;20457;-76
2022/06/08 03:09:01;;;;;;;0.10;0.10;;;15.20;84.80;;;;;;5018158;28;20036;-76
2022/06/08 03:11:35;;;;;;;0.10;0.10;;;15.30;84.10;;;;;;5019639;28;20056;-77
2022/06/08 03:14:07;;;;;;;0.08;0.08;;;15.40;84.10;;;;;;5020429;28;20038;-77
2022/06/08 03:16:35;;;;;;;0.60;0.60;;;15.40;84.10;;;;;;5022799;28;20106;-77
2022/06/08 03:19:01;;;;;;;1.45;0.30;;;15.40;84.50;;;;;;5022287;28;20151;-77
2022/06/08 03:21:27;;;;;;;0.17;0.17;;;15.30;84.60;;;;;;5020964;28;20022;-77
2022/06/08 03:23:55;;;;;;;0.00;0.00;;;15.30;84.80;;;;;;5018313;28;20037;-77
2022/06/08 03:26:23;;;;;;;0.10;0.10;;;15.30;84.60;;;;;;5023780;28;20477;-77
2022/06/08 03:28:49;;;;;;;0.25;0.25;;;15.30;84.50;;;;;;5021059;28;20029;-77
2022/06/08 03:31:15;;;;;;;0.10;0.10;;;15.30;84.70;;;;;;5022538;28;20572;-78
2022/06/08 03:34:05;;;;;;;0.00;0.00;;;15.30;84.30;;;;;;5021538;28;20037;-81
2022/06/08 03:36:30;;;;;;;0.10;0.10;;;15.40;84.00;;;;;;5022804;28;20129;-78
2022/06/08 03:38:56;;;;;;;0.80;0.40;;;15.50;84.00;;;;;;5021561;28;20116;-78
2022/06/08 03:41:22;;;;;;;0.10;0.10;;;15.50;83.30;;;;;;5022950;28;20416;-78
2022/06/08 03:43:47;;;;;;;0.07;0.07;;;15.50;83.70;;;;;;5020870;28;20397;-78
2022/06/08 03:46:15;;;;;;;0.10;0.10;;;15.40;83.90;;;;;;5022400;28;20036;-78
2022/06/08 03:48:44;;;;;;;0.10;0.10;;;15.40;84.70;;;;;;5034623;28;20053;-77
2022/06/08 03:51:12;;;;;;;0.22;0.22;;;15.50;84.90;;;;;;5043128;28;20028;-78
2022/06/08 03:53:44;;;;;;;0.00;0.00;;;15.50;83.50;;;;;;5042430;28;20028;-78
2022/06/08 03:56:11;;;;;;;0.00;0.00;;;15.60;83.50;;;;;;5043176;28;20029;-78
2022/06/08 03:58:37;;;;;;;0.03;0.03;;;15.60;83.60;;;;;;5040455;28;20041;-78
2022/06/08 04:01:03;;;;;;;0.00;0.00;;;15.60;84.50;;;;;;5041026;28;20056;-78
2022/06/08 04:03:30;;;;;;;0.10;0.10;;;15.60;84.50;;;;;;5042888;28;20040;-78
2022/06/08 04:05:58;;;;;;;0.00;0.00;;;15.50;86.00;;;;;;5024461;28;20032;-78
2022/06/08 04:08:24;;;;;;;0.13;0.13;;;15.50;87.40;;;;;;5040726;28;20028;-78
2022/06/08 04:10:50;;;;;;;0.10;0.10;;;15.40;88.20;;;;;;5039047;28;20029;-76
2022/06/08 04:13:16;;;;;;;0.23;0.23;;;15.50;87.60;;;;;;5043420;28;20033;-77
2022/06/08 04:15:42;;;;;;;0.00;0.00;;;15.60;87.10;;;;;;5040893;28;20298;-77
2022/06/08 04:18:19;;;;;;;2.13;1.20;;;15.60;87.10;;;;;;5024381;28;20441;-77
2022/06/08 04:20:52;;;;;;;0.10;0.10;;;15.60;87.20;;;;;;5039302;28;20033;-76
2022/06/08 04:23:20;;;;;;;0.00;0.00;;;15.50;88.40;;;;;;5042224;28;20111;-76
2022/06/08 04:25:47;;;;;;;0.10;0.10;;;15.50;87.80;;;;;;5039309;28;20512;-75
2022/06/08 04:28:13;;;;;;;0.00;0.00;;;15.60;87.40;;;;;;5040877;28;20036;-76
2022/06/08 04:30:40;;;;;;;0.10;0.10;;;15.60;87.10;;;;;;5020223;28;20045;-77
2022/06/08 04:33:06;;;;;;;0.10;0.10;;;15.60;87.70;;;;;;5039193;28;20041;-77
2022/06/08 04:35:32;;;;;;;0.00;0.00;;;15.60;87.30;;;;;;5040025;28;20631;-78
2022/06/08 04:37:59;;;;;;;0.03;0.03;;;15.50;87.60;;;;;;5042750;28;20128;-78
2022/06/08 04:40:25;;;;;;;;;;;15.60;88.40;;;;;;5038841;28;20729;-77
2022/06/08 04:42:52;;;;;;;0.20;0.20;;;15.30;89.10;;;;;;5044602;28;20016;-77
2022/06/08 04:45:21;;;;;;;0.10;0.10;;;15.30;89.50;;;;;;5043676;28;20045;-76
2022/06/08 04:47:46;;;;;;;0.20;0.20;;;15.20;89.80;;;;;;5018979;28;20053;-76
2022/06/08 04:50:12;;;;;;;0.00;0.00;;;15.20;90.20;;;;;;5022503;28;20040;-78
2022/06/08 04:52:38;;;;;;;0.20;0.20;;;15.30;90.10;;;;;;5020387;28;20037;-76
2022/06/08 04:55:06;;;;;;;0.10;0.10;;;15.20;90.20;;;;;;5019967;28;20035;-79
2022/06/08 04:57:36;;;;;;;0.00;0.00;;;15.10;90.50;;;;;;5021176;28;20044;-79
2022/06/08 05:00:04;;;;;;;0.10;0.10;;;15.10;90.80;;;;;;5024057;28;20040;-78
2022/06/08 05:02:47;;;;;;;0.00;0.00;;;15.10;90.70;;;;;;5021881;28;20045;-77
2022/06/08 05:05:26;;;;;;;0.10;0.10;;;15.00;91.00;;;;;;5024040;28;20029;-78
2022/06/08 05:07:53;;;;;;;1.00;0.63;;;14.90;91.20;;;;;;5021249;28;20099;-78
2022/06/08 05:10:20;;;;;;;0.00;0.00;;;14.90;91.00;;;;;;5023933;28;20505;-78
2022/06/08 05:12:46;;;;;;;0.43;0.10;;;15.10;90.60;;;;;;5020592;28;20512;-78
2022/06/08 05:15:21;;;;;;;3.65;0.25;;;15.20;90.20;;;;;;5022383;28;20064;-78
2022/06/08 05:17:47;;;;;;;0.55;0.38;;;15.30;90.10;;;;;;5023097;28;20077;-77
2022/06/08 05:20:16;;;;;;;0.00;0.00;;;15.40;90.20;;;;;;5024516;28;21064;-80
2022/06/08 05:22:42;;;;;;;0.28;0.28;;;15.40;90.10;;;;;;5020868;28;20041;-79
2022/06/08 05:25:11;;;;;;;0.15;0.15;;;15.20;90.70;;;;;;5020188;28;20036;-79
2022/06/08 05:27:38;;;;;;;1.17;0.55;;;15.20;91.00;;;;;;5022074;28;20048;-82
2022/06/08 05:30:05;;;;;;;0.10;0.10;;;15.30;91.10;;;;;;5022037;28;20038;-82
2022/06/08 05:32:31;;;;;;;0.30;0.30;;;15.20;91.30;;;;;;5023456;28;20037;-82
2022/06/08 05:34:57;;;;;;;0.90;0.30;;;14.90;91.40;;;;;;5020721;28;20041;-82
2022/06/08 05:37:23;;;;;;;0.35;0.35;;;14.90;91.60;;;;;;5020496;28;20108;-82
2022/06/08 05:39:49;;;;;;;2.33;0.40;;;14.90;91.60;;;;;;5020875;28;20171;-82
2022/06/08 05:42:15;;;;;;;3.83;1.30;;;15.00;91.60;;;;;;5019159;28;20156;-82
2022/06/08 05:44:40;;;;;;;0.30;0.30;;;15.00;91.50;;;;;;5021143;28;20069;-79
2022/06/08 05:47:06;;;;;;;0.10;0.10;;;15.00;91.50;;;;;;5027188;28;20545;-80
2022/06/08 05:49:35;;;;;;;4.57;1.07;;;15.10;91.20;;;;;;5039825;28;20029;-79
2022/06/08 05:52:02;;;;;;;0.88;0.40;;;14.90;91.20;;;;;;5041045;28;20105;-80
2022/06/08 05:54:29;;;;;;;0.55;0.55;;;14.90;91.80;;;;;;5041208;28;20756;-82
2022/06/08 05:56:55;;;;;;;0.17;0.17;;;14.80;92.00;;;;;;5037317;28;20039;-84
2022/06/08 05:59:21;;;;;;;0.13;0.13;;;14.90;92.10;;;;;;5042955;28;20128;-84
2022/06/08 06:01:47;;;;;;;0.20;0.20;;;15.10;91.50;;;;;;5039125;28;20033;-84
2022/06/08 06:04:13;;;;;;;0.10;0.10;;;15.10;91.20;;;;;;5041559;28;20040;-84
2022/06/08 06:06:43;;;;;;;0.20;0.20;;;14.90;91.10;;;;;;5041017;28;20037;-83
2022/06/08 06:09:10;;;;;;;0.10;0.10;;;14.90;91.10;;;;;;5039743;28;20116;-83
2022/06/08 06:11:37;;;;;;;;;;;15.00;90.70;;;;;;5041203;28;20028;-84
2022/06/08 06:14:03;;;;;;;0.55;0.47;;;14.80;91.00;;;;;;5040814;28;19912;-79
2022/06/08 06:16:29;;;;;;;0.20;0.20;;;14.80;90.90;;;;;;5040080;28;20032;-82
2022/06/08 06:18:55;;;;;;;0.10;0.10;;;14.80;91.20;;;;;;5040392;28;20048;-82
2022/06/08 06:21:25;;;;;;;0.80;0.10;;;14.70;91.10;;;;;;5040659;28;20114;-84
2022/06/08 06:23:59;;;;;;;0.10;0.10;;;14.70;91.30;;;;;;5040527;28;20037;-82
2022/06/08 06:26:25;;;;;;;0.20;0.20;;;14.70;91.60;;;;;;5038294;28;20032;-84
2022/06/08 06:28:51;;;;;;;3.57;0.93;;;14.80;91.10;;;;;;5038435;28;20703;-83
2022/06/08 06:31:22;;;;;;;0.10;0.10;;;14.80;91.10;;;;;;5040486;28;20029;-84
2022/06/08 06:33:48;;;;;;;0.00;0.00;;;14.70;91.20;;;;;;5039698;28;20040;-85
2022/06/08 06:36:14;;;;;;;0.00;0.00;;;14.70;91.30;;;;;;5023959;28;20043;-87
2022/06/08 06:38:40;;;;;;;0.10;0.10;;;14.60;91.30;;;;;;5023878;28;20028;-86
2022/06/08 06:41:06;;;;;;;0.07;0.07;;;14.60;91.30;;;;;;5038885;28;20062;-88
2022/06/08 06:43:32;;;;;;;0.00;0.00;;;14.60;91.40;;;;;;5040960;28;20291;-86
2022/06/08 06:45:58;;;;;;;0.10;0.10;;;14.50;91.10;;;;;;5041858;28;20773;-87
2022/06/08 06:48:25;;;;;;;0.20;0.20;;;14.50;91.40;;;;;;5039756;28;20080;-87
2022/06/08 06:50:51;;;;;;;0.00;0.00;;;14.50;91.50;;;;;;5041183;28;20029;-87
2022/06/08 06:53:17;;;;;;;0.10;0.10;;;14.60;91.30;;;;;;5039400;28;20411;-88
2022/06/08 06:55:43;;;;;;;0.15;0.15;;;14.60;91.10;;;;;;5039546;28;20583;-86
2022/06/08 06:58:09;;;;;;;0.53;0.50;;;14.70;91.00;;;;;;5019077;28;20032;-88
2022/06/08 07:00:35;;;;;;;0.20;0.20;;;14.90;90.70;;;;;;5025739;28;20104;-89
2022/06/08 07:03:01;;;;;;;0.00;0.00;;;15.20;90.40;;;;;;5043199;28;20041;-89
2022/06/08 07:05:30;;;;;;;0.00;0.00;;;15.30;89.00;;;;;;5027188;28;20050;-91
2022/06/08 07:07:56;;;;;;;0.00;0.00;;;15.50;89.20;;;;;;5043896;28;20029;-90
2022/06/08 07:10:22;;;;;;;0.10;0.10;;;15.60;89.30;;;;;;5024038;28;20021;-89
2022/06/08 07:12:48;;;;;;;0.30;0.30;;;15.60;89.20;;;;;;5040686;28;20060;-88
2022/06/08 07:15:16;;;;;;;0.00;0.00;;;15.80;88.40;;;;;;5041127;28;20025;-89
2022/06/08 07:17:42;;;;;;;0.00;0.00;;;16.00;87.70;;;;;;5042977;28;20419;-89
2022/06/08 07:20:09;;;;;;;0.00;0.00;;;16.00;86.90;;;;;;5043653;28;20033;-90
2022/06/08 07:22:35;;;;;;;0.00;0.00;;;16.00;87.10;;;;;;5039522;28;20056;-88
2022/06/08 07:25:00;;;;;;;0.33;0.33;;;15.70;89.00;;;;;;5039807;28;20060;-88
2022/06/08 07:27:27;;;;;;;0.00;0.00;;;15.60;89.20;;;;;;5039541;28;20068;-88
2022/06/08 07:29:53;;;;;;;0.45;0.45;;;15.60;89.50;;;;;;5040725;28;20033;-88
2022/06/08 07:32:19;;;;;;;0.00;0.00;;;15.60;89.40;;;;;;5043597;28;20033;-87
2022/06/08 07:34:45;;;;;;;3.67;0.43;;;15.30;90.10;;;;;;5039721;28;20033;-88
2022/06/08 07:37:10;;;;;;;0.00;0.00;;;15.40;90.50;;;;;;5039686;28;20159;-88
2022/06/08 07:39:36;;;;;;;0.27;0.10;;;15.40;90.30;;;;;;5024683;28;20033;-87
2022/06/08 07:42:03;;;;;;;0.53;0.20;;;15.40;90.40;;;;;;5041069;28;20033;-88
2022/06/08 07:44:29;;;;;;;0.00;0.00;;;15.60;90.00;;;;;;5043109;28;20082;-86
2022/06/08 07:46:55;;;;;;;0.22;0.22;;;15.80;89.30;;;;;;5041104;28;20043;-81
2022/06/08 07:49:39;;;;;;;0.00;0.00;;;16.00;87.40;;;;;;5039219;28;20040;-81
2022/06/08 07:52:12;;;;;;;0.73;0.10;;;16.10;87.10;;;;;;5040260;28;20033;-81
2022/06/08 07:54:40;;;;;;;0.00;0.00;;;16.30;87.10;;;;;;5031796;28;20163;-81
2022/06/08 07:57:06;;;;;;;0.00;0.00;;;16.30;87.30;;;;;;5039891;28;20033;-81
2022/06/08 07:59:36;;;;;;;0.08;0.08;;;16.30;86.60;;;;;;5042754;28;20025;-80
2022/06/08 08:02:02;;;;;;;0.00;0.00;;;16.20;86.70;;;;;;5045085;28;20583;-81
2022/06/08 08:04:28;;;;;;;0.00;0.00;;;16.10;88.60;;;;;;5044307;28;20094;-82
2022/06/08 08:06:54;;;;;;;0.10;0.10;;;16.10;88.30;;;;;;5028016;28;20500;-82
2022/06/08 08:09:22;;;;;;;0.00;0.00;;;16.10;88.80;;;;;;5044842;28;20060;-82
2022/06/08 08:11:52;;;;;;;0.15;0.15;;;16.10;88.20;;;;;;5044560;28;20033;-82
2022/06/08 08:14:19;;;;;;;0.20;0.20;;;16.10;88.20;;;;;;5027813;28;20496;-82
2022/06/08 08:16:45;;;;;;;0.13;0.13;;;16.10;88.60;;;;;;5042951;28;20036;-82
2022/06/08 08:19:13;;;;;;;0.00;0.00;;;16.20;88.40;;;;;;5044436;28;20033;-82
2022/06/08 08:21:39;;;;;;;0.15;0.15;;;16.20;88.40;;;;;;5039030;28;20037;-83
2022/06/08 08:24:06;;;;;;;0.00;0.00;;;16.10;87.60;;;;;;5042781;28;20034;-82
2022/06/08 08:26:34;;;;;;;0.22;0.22;;;16.00;89.10;;;;;;5044967;28;20589;-83
2022/06/08 08:29:00;;;;;;;0.00;0.00;;;15.90;89.90;;;;;;5044207;28;20071;-83
2022/06/08 08:31:26;;;;;;;0.00;0.00;;;16.00;89.60;;;;;;5042245;28;20048;-82
2022/06/08 08:33:52;;;;;;;0.00;0.00;;;15.70;90.10;;;;;;5016114;28;20021;-83
2022/06/08 08:36:18;;;;;;;0.00;0.00;;;15.70;90.00;;;;;;5023815;28;20029;-82
2022/06/08 08:38:44;;;;;;;1.50;0.70;;;15.60;90.40;;;;;;5025195;28;20045;-82
2022/06/08 08:44:06;;;;;;;0.08;0.08;;;16.20;90.00;;;;;;5045399;28;20134;-82
2022/06/08 08:46:40;;;;;;;;;;;16.60;88.80;;;;;;5041941;28;20017;-82
2022/06/08 08:49:10;;;;;;;1.55;0.85;;;16.60;88.80;;;;;;5041646;28;19943;-82
2022/06/08 08:51:43;;;;;;;0.00;0.00;;;16.80;87.60;;;;;;5030007;28;20108;-82
2022/06/08 08:54:30;;;;;;;0.00;0.00;;;16.90;87.00;;;;;;5040023;28;20030;-82
2022/06/08 08:57:11;;;;;;;0.00;0.00;;;16.80;87.50;;;;;;5018692;28;20029;-83
2022/06/08 08:59:41;;;;;;;0.00;0.00;;;16.70;89.30;;;;;;5035611;28;20598;-83
2022/06/08 09:03:14;;;;;;;0.10;0.10;;;17.10;88.00;;;;;;5042980;28;20082;-83
2022/06/08 09:05:03;;;;;;;0.00;0.00;;;17.40;88.20;;;;;;5043914;28;20506;-82
2022/06/08 09:07:29;;;;;;;0.03;0.03;;;18.30;84.60;;;;;;5041644;28;20079;-83
2022/06/08 09:09:55;;;;;;;;;;;18.00;84.80;;;;;;5042907;28;20039;-83
2022/06/08 09:12:21;;;;;;;0.00;0.00;;;17.80;85.70;;;;;;5031600;28;20292;-82
2022/06/08 09:14:51;;;;;;;1.83;0.27;;;17.80;85.90;;;;;;5042530;28;20068;-83
2022/06/08 09:17:48;;;;;;;3.00;1.08;;;17.60;86.80;;;;;;5043531;28;20025;-83
2022/06/08 09:20:23;;;;;;;0.20;0.20;;;17.60;87.20;;;;;;5043414;28;20135;-83
2022/06/08 09:22:52;;;;;;;0.10;0.10;;;17.70;85.70;;;;;;5040160;28;20040;-83
2022/06/08 09:25:31;;;;;;;0.10;0.10;;;17.60;86.80;;;;;;5022948;28;20064;-84
2022/06/08 09:27:58;;;;;;;0.00;0.00;;;17.70;86.50;;;;;;5042119;28;20029;-83
2022/06/08 09:30:28;;;;;;;0.45;0.22;;;17.30;87.30;;;;;;5042991;28;20032;-82
2022/06/08 09:33:00;;;;;;;0.00;0.00;;;17.00;87.50;;;;;;5023588;28;20029;-82
2022/06/08 09:35:35;;;;;;;0.00;0.00;;;16.80;89.00;;;;;;5040705;28;20104;-83
2022/06/08 09:38:11;;;;;;;0.38;0.38;;;16.80;89.00;;;;;;5045036;28;20058;-82
2022/06/08 09:40:55;;;;;;;0.10;0.10;;;16.80;89.60;;;;;;5042237;28;20032;-82
2022/06/08 09:43:39;;;;;;;0.00;0.00;;;16.70;89.70;;;;;;5041300;28;20074;-82
2022/06/08 09:46:14;;;;;;;0.00;0.00;;;16.70;90.00;;;;;;5040174;28;20035;-82
2022/06/08 09:51:50;;;;;;;0.10;0.10;;;16.60;90.60;;;;;;5040205;28;20780;-83
2022/06/08 09:54:26;;;;;;;0.00;0.00;;;16.60;90.90;;;;;;5037190;28;20030;-82
2022/06/08 09:56:56;;;;;;;0.00;0.00;;;16.60;90.80;;;;;;5031125;28;20044;-83
2022/06/08 09:59:37;;;;;;;0.00;0.00;;;16.70;91.10;;;;;;5044175;28;20463;-84
2022/06/08 10:02:17;;;;;;;0.10;0.10;;;17.50;89.70;;;;;;5043448;28;20029;-82
2022/06/08 10:05:26;;;;;;;0.00;0.00;;;18.00;87.40;;;;;;5024100;28;20033;-81
2022/06/08 10:07:57;;;;;;;0.10;0.10;;;17.50;88.70;;;;;;4958231;28;20116;-82
2022/06/08 10:10:54;;;;;;;0.10;0.10;;;17.60;89.80;;;;;;4943867;28;20149;-84
2022/06/08 10:13:36;;;;;;;0.25;0.25;;;17.50;88.60;;;;;;4957779;28;20664;-83
2022/06/08 10:16:11;;;;;;;0.00;0.00;;;17.40;89.90;;;;;;4958956;28;20038;-83
2022/06/08 10:18:48;;;;;;;0.17;0.17;;;17.70;88.20;;;;;;4956582;28;20039;-83
2022/06/08 10:21:19;;;;;;;0.93;0.28;;;17.40;87.90;;;;;;4958365;28;20046;-82
2022/06/08 10:24:16;;;;;;;0.10;0.10;;;17.30;89.00;;;;;;4957866;28;20200;-82
2022/06/08 10:26:51;;;;;;;0.00;0.00;;;17.30;89.70;;;;;;4958802;28;20599;-83
2022/06/08 10:29:36;;;;;;;0.10;0.10;;;17.30;90.50;;;;;;4957631;28;20482;-83
2022/06/08 10:32:18;;;;;;;0.00;0.00;;;17.20;90.00;;;;;;4950167;28;20086;-82
2022/06/08 10:34:51;;;;;;;0.05;0.05;;;16.90;91.00;;;;;;4948130;28;20038;-82
2022/06/08 10:37:40;;;;;;;0.65;0.43;;;17.10;91.10;;;;;;4954670;28;20037;-82
2022/06/08 10:40:09;;;;;;;0.10;0.10;;;17.10;91.20;;;;;;4959807;28;20094;-82
2022/06/08 10:42:43;;;;;;;1.55;0.35;;;16.90;91.60;;;;;;4942614;28;20423;-81
2022/06/08 10:45:23;;;;;;;0.13;0.13;;;16.90;91.80;;;;;;5002226;28;20056;-88
2022/06/08 10:48:01;;;;;;;0.00;0.00;;;16.70;92.50;;;;;;5028063;28;20065;-89
2022/06/08 10:50:32;;;;;;;0.10;0.10;;;16.60;92.40;;;;;;5039453;28;20021;-89
2022/06/08 10:54:53;;;;;;;0.38;0.38;;;16.60;92.40;;;;;;5040873;28;20033;-89
2022/06/08 10:55:46;;;;;;;0.40;0.28;;;16.70;92.30;;;;;;5031890;28;20040;-90
2022/06/08 10:58:15;;;;;;;0.10;0.10;;;16.70;92.40;;;;;;5039393;28;20112;-89
2022/06/08 11:00:58;;;;;;;0.00;0.00;;;16.70;92.60;;;;;;5025369;28;20029;-89
2022/06/08 11:03:33;;;;;;;0.08;0.08;;;16.60;93.10;;;;;;5041688;28;20591;-89
2022/06/08 11:05:59;;;;;;;0.20;0.20;;;16.70;96.00;;;;;;5028088;28;20451;-89
2022/06/08 11:08:51;;;;;;;0.10;0.10;;;16.60;94.00;;;;;;5039191;28;20146;-88
2022/06/08 11:11:38;;;;;;;0.00;0.00;;;16.30;95.40;;;;;;5042818;28;20033;-89
2022/06/08 11:14:25;;;;;;;0.30;0.28;;;16.20;95.30;;;;;;5043371;28;20061;-88
2022/06/08 11:16:53;;;;;;;0.10;0.10;;;16.40;94.90;;;;;;5024514;28;20128;-89
2022/06/08 11:19:21;;;;;;;0.40;0.40;;;17.10;94.70;;;;;;5041361;28;20035;-89
2022/06/08 11:21:54;;;;;;;0.17;0.17;;;17.50;92.90;;;;;;5042237;28;20029;-90
2022/06/08 11:24:36;;;;;;;0.05;0.05;;;17.60;92.40;;;;;;5030532;28;20029;-90
2022/06/08 11:27:11;;;;;;;0.20;0.20;;;17.80;92.10;;;;;;5032471;28;20040;-90
2022/06/08 11:29:49;;;;;;;0.20;0.20;;;17.80;91.30;;;;;;5040721;28;20049;-89
2022/06/08 11:32:32;;;;;;;0.32;0.32;;;17.80;91.20;;;;;;5028592;28;20090;-89
2022/06/08 11:35:13;;;;;;;0.00;0.00;;;18.00;91.00;;;;;;5037699;28;20483;-89
2022/06/08 11:38:04;;;;;;;0.20;0.20;;;18.10;91.00;;;;;;5043253;28;20076;-90
2022/06/08 11:40:32;;;;;;;0.10;0.10;;;17.80;90.90;;;;;;5044091;28;20033;-90
2022/06/08 11:43:07;;;;;;;0.38;0.10;;;17.90;91.00;;;;;;5023511;28;20059;-89
2022/06/08 11:45:44;;;;;;;0.10;0.10;;;17.90;90.90;;;;;;5047405;28;20029;-83
2022/06/08 11:48:17;;;;;;;0.00;0.00;;;17.40;92.40;;;;;;5023615;28;20046;-82
2022/06/08 11:50:49;;;;;;;0.20;0.13;;;17.30;92.60;;;;;;5024801;28;20030;-82
2022/06/08 11:53:16;;;;;;;0.30;0.30;;;17.10;92.90;;;;;;5010101;28;20726;-82
2022/06/08 11:56:16;;;;;;;0.08;0.08;;;17.20;93.20;;;;;;5014759;28;20041;-82
2022/06/08 11:58:47;;;;;;;1.08;0.38;;;17.20;92.50;;;;;;5017287;28;20029;-82
2022/06/08 12:01:20;;;;;;;0.57;0.43;;;17.20;93.10;;;;;;5018288;28;20109;-82
2022/06/08 12:03:49;;;;;;;0.30;0.20;;;17.50;92.50;;;;;;5014725;28;20105;-82
2022/06/08 12:06:14;;;;;;;0.17;0.17;;;17.40;92.40;;;;;;5023920;28;20025;-82
2022/06/08 12:08:46;;;;;;;0.10;0.10;;;17.30;92.90;;;;;;5025004;28;20030;-82
2022/06/08 12:11:14;;;;;;;0.03;0.00;;;17.50;92.70;;;;;;5016754;28;20555;-83
2022/06/08 12:13:59;;;;;;;0.25;0.25;;;17.50;93.20;;;;;;5025051;28;20086;-82
2022/06/08 12:16:30;;;;;;;0.20;0.20;;;17.60;93.30;;;;;;5010678;28;20440;-83
2022/06/08 12:19:13;;;;;;;0.17;0.17;;;17.30;93.40;;;;;;5016473;28;20511;-82
2022/06/08 12:21:41;;;;;;;0.20;0.20;;;17.20;93.60;;;;;;4996243;28;20045;-82
2022/06/08 12:24:13;;;;;;;0.10;0.10;;;17.10;93.60;;;;;;5008622;28;20034;-83
2022/06/08 12:26:51;;;;;;;0.00;0.00;;;17.10;94.00;;;;;;5014026;28;20032;-82
2022/06/08 12:29:40;;;;;;;2.17;0.63;;;17.10;93.90;;;;;;5030033;28;20033;-81
2022/06/08 12:32:06;;;;;;;1.55;0.47;;;17.30;93.80;;;;;;5017406;28;20079;-81
2022/06/08 12:35:12;;;;;;;0.10;0.10;;;17.40;93.20;;;;;;5011779;28;20029;-82
2022/06/08 12:37:44;;;;;;;0.08;0.08;;;18.00;92.10;;;;;;5012051;28;20549;-82
2022/06/08 12:40:16;;;;;;;0.03;0.03;;;18.30;91.70;;;;;;5013882;28;20029;-82
2022/06/08 12:42:57;;;;;;;0.10;0.10;;;18.30;91.80;;;;;;5009878;28;20042;-83
2022/06/08 12:45:30;;;;;;;0.05;0.05;;;18.20;92.00;;;;;;5012154;28;20045;-83
2022/06/08 12:47:57;;;;;;;0.45;0.30;;;18.20;92.10;;;;;;5008467;28;23473;-83
2022/06/08 12:50:30;;;;;;;0.25;0.25;;;18.30;91.70;;;;;;5019090;28;20049;-83
2022/06/08 12:53:02;;;;;;;0.10;0.10;;;18.30;91.90;;;;;;5021107;28;20459;-83
2022/06/08 12:55:28;;;;;;;0.13;0.13;;;18.40;91.90;;;;;;5019860;28;20025;-83
2022/06/08 12:57:54;;;;;;;0.00;0.00;;;18.50;91.40;;;;;;5019483;28;20029;-83
2022/06/08 13:00:27;;;;;;;0.00;0.00;;;18.50;91.30;;;;;;5012077;28;20045;-83
2022/06/08 13:02:53;;;;;;;0.00;0.00;;;19.00;90.90;;;;;;5006566;28;20033;-83
2022/06/08 13:05:21;;;;;;;0.30;0.30;;;19.00;91.20;;;;;;5011210;28;20554;-83
2022/06/08 13:07:48;;;;;;;0.15;0.13;;;19.60;90.20;;;;;;5021340;28;20042;-82
2022/06/08 13:10:13;;;;;;;;;;;20.20;90.10;;;;;;5023878;28;20440;-83
2022/06/08 13:12:47;;;;;;;0.20;0.20;;;20.00;89.20;;;;;;5023383;28;19920;-83
2022/06/08 13:15:22;;;;;;;0.28;0.20;;;19.50;90.20;;;;;;5021438;28;20108;-83
2022/06/08 13:17:48;;;;;;;0.55;0.35;;;18.90;90.90;;;;;;5023383;28;20076;-83
2022/06/08 13:20:27;;;;;;;0.15;0.10;;;18.70;91.70;;;;;;5025157;28;20025;-82